createdAt,value
2019-03-25T00:02:24.299Z,3.02
2019-03-25T00:04:53.220Z,2.87
2019-03-25T00:07:22.116Z,3.25
2019-03-25T00:09:50.982Z,3.75
2019-03-25T00:12:19.856Z,2.85
2019-03-25T00:14:48.711Z,3.00
2019-03-25T00:17:17.619Z,3.22
2019-03-25T00:19:46.529Z,3.40
2019-03-25T00:22:15.401Z,3.25
2019-03-25T00:24:45.251Z,3.45
2019-03-25T00:27:14.110Z,3.00
2019-03-25T00:29:43.035Z,3.52
2019-03-25T00:32:11.903Z,3.33
2019-03-25T00:34:40.787Z,3.17
2019-03-25T00:37:09.651Z,3.52
2019-03-25T00:39:38.773Z,3.47
2019-03-25T00:42:07.638Z,3.87
2019-03-25T00:44:36.872Z,4.20
2019-03-25T00:47:05.735Z,3.72
2019-03-25T00:49:34.615Z,4.50
2019-03-25T00:52:03.487Z,4.50
2019-03-25T00:54:32.381Z,4.30
2019-03-25T00:57:01.241Z,4.65
2019-03-25T00:59:30.121Z,4.70
2019-03-25T01:02:02.059Z,4.95
2019-03-25T01:04:30.919Z,5.10
2019-03-25T01:06:59.802Z,4.70
2019-03-25T01:09:28.655Z,4.80
2019-03-25T01:11:57.755Z,4.37
2019-03-25T01:14:26.635Z,4.80
2019-03-25T01:16:55.511Z,5.33
2019-03-25T01:19:24.376Z,5.33
2019-03-25T01:21:53.251Z,4.70
2019-03-25T01:24:22.127Z,5.55
2019-03-25T01:26:51.241Z,5.30
2019-03-25T01:29:20.115Z,4.37
2019-03-25T01:31:48.988Z,5.00
2019-03-25T01:34:17.871Z,5.55
2019-03-25T01:36:46.987Z,5.58
2019-03-25T01:39:16.840Z,6.05
2019-03-25T01:41:45.980Z,6.03
2019-03-25T01:44:14.839Z,5.55
2019-03-25T01:46:43.699Z,6.47
2019-03-25T01:49:12.675Z,5.55
2019-03-25T01:51:41.700Z,5.65
2019-03-25T01:54:10.766Z,5.47
2019-03-25T01:56:39.850Z,6.12
2019-03-25T01:59:08.890Z,5.87
2019-03-25T02:01:38.011Z,5.70
2019-03-25T02:04:07.091Z,6.08
2019-03-25T02:06:36.101Z,5.67
2019-03-25T02:09:06.304Z,6.12
2019-03-25T02:11:35.476Z,5.55
2019-03-25T02:14:04.522Z,5.83
2019-03-25T02:16:35.741Z,5.33
2019-03-25T02:19:04.826Z,6.05
2019-03-25T02:21:34.122Z,6.00
2019-03-25T02:24:04.070Z,5.75
2019-03-25T02:26:33.106Z,6.50
2019-03-25T02:29:03.418Z,6.78
2019-03-25T02:31:32.506Z,6.50
2019-03-25T02:34:01.572Z,6.55
2019-03-25T02:36:30.869Z,6.20
2019-03-25T02:39:00.243Z,6.55
2019-03-25T02:41:29.353Z,6.05
2019-03-25T02:43:58.395Z,6.40
2019-03-25T02:46:27.457Z,6.25
2019-03-25T02:48:56.508Z,6.53
2019-03-25T02:51:25.802Z,6.45
2019-03-25T02:53:54.826Z,6.25
2019-03-25T02:56:24.200Z,7.25
2019-03-25T02:58:53.309Z,7.45
2019-03-25T03:01:22.350Z,7.45
2019-03-25T03:03:53.164Z,7.03
2019-03-25T03:06:22.227Z,5.83
2019-03-25T03:08:51.288Z,8.00
2019-03-25T03:11:20.372Z,7.42
2019-03-25T03:13:49.614Z,7.35
2019-03-25T03:16:18.652Z,7.35
2019-03-25T03:18:47.736Z,6.78
2019-03-25T03:21:16.799Z,6.35
2019-03-25T03:23:45.870Z,6.58
2019-03-25T03:26:14.887Z,7.15
2019-03-25T03:28:43.946Z,7.15
2019-03-25T03:31:13.394Z,6.78
2019-03-25T03:33:42.379Z,6.58
2019-03-25T03:36:11.406Z,6.20
2019-03-25T03:38:40.439Z,6.97
2019-03-25T03:41:09.534Z,6.78
2019-03-25T03:43:38.568Z,6.83
2019-03-25T03:46:07.592Z,6.78
2019-03-25T03:48:37.006Z,6.65
2019-03-25T03:51:06.285Z,6.47
2019-03-25T03:53:35.483Z,7.15
2019-03-25T03:56:12.832Z,6.22
2019-03-25T03:58:35.611Z,7.03
2019-03-25T04:01:04.472Z,6.60
2019-03-25T04:03:33.334Z,5.90
2019-03-25T04:06:02.210Z,6.28
2019-03-25T04:08:31.091Z,6.90
2019-03-25T04:11:00.192Z,7.40
2019-03-25T04:13:29.055Z,7.15
2019-03-25T04:16:01.194Z,6.90
2019-03-25T04:18:28.758Z,6.47
2019-03-25T04:20:57.641Z,6.78
2019-03-25T04:23:26.508Z,6.90
2019-03-25T04:25:55.415Z,6.83
2019-03-25T04:28:24.280Z,8.05
2019-03-25T04:30:53.425Z,7.15
2019-03-25T04:33:22.274Z,7.85
2019-03-25T04:35:51.135Z,7.17
2019-03-25T04:38:20.009Z,7.25
2019-03-25T04:40:48.860Z,6.65
2019-03-25T04:43:17.792Z,7.47
2019-03-25T04:45:46.652Z,6.75
2019-03-25T04:48:15.555Z,7.08
2019-03-25T04:50:44.428Z,6.70
2019-03-25T04:53:13.288Z,7.10
2019-03-25T04:55:42.206Z,6.05
2019-03-25T04:58:11.035Z,6.87
2019-03-25T05:00:39.978Z,6.87
2019-03-25T05:03:08.856Z,6.53
2019-03-25T05:05:37.723Z,6.92
2019-03-25T05:08:06.592Z,6.92
2019-03-25T05:10:35.707Z,6.65
2019-03-25T05:13:04.576Z,6.30
2019-03-25T05:15:33.443Z,6.75
2019-03-25T05:18:04.385Z,6.37
2019-03-25T05:20:33.256Z,7.10
2019-03-25T05:23:02.149Z,7.08
2019-03-25T05:25:31.016Z,7.12
2019-03-25T05:27:59.908Z,6.75
2019-03-25T05:30:29.024Z,6.75
2019-03-25T05:32:58.901Z,6.47
2019-03-25T05:35:27.769Z,7.10
2019-03-25T05:38:03.848Z,6.83
2019-03-25T05:40:33.082Z,6.97
2019-03-25T05:43:01.970Z,7.53
2019-03-25T05:45:31.076Z,7.35
2019-03-25T05:47:59.947Z,7.35
2019-03-25T05:50:28.983Z,6.67
2019-03-25T05:55:52.467Z,7.25
2019-03-25T05:58:21.576Z,7.10
2019-03-25T06:00:50.443Z,6.92
2019-03-25T06:03:19.337Z,7.53
2019-03-25T06:05:48.224Z,7.92
2019-03-25T06:08:17.096Z,7.90
2019-03-25T06:10:45.972Z,7.85
2019-03-25T06:13:14.857Z,7.58
2019-03-25T06:15:43.755Z,7.03
2019-03-25T06:18:12.628Z,7.80
2019-03-25T06:20:41.566Z,7.75
2019-03-25T06:23:10.468Z,7.80
2019-03-25T06:25:39.566Z,7.58
2019-03-25T06:28:08.436Z,7.10
2019-03-25T06:30:37.324Z,8.28
2019-03-25T06:33:12.325Z,7.47
2019-03-25T06:35:36.763Z,7.55
2019-03-25T06:38:05.651Z,7.83
2019-03-25T06:40:39.275Z,7.72
2019-03-25T06:43:08.165Z,8.03
2019-03-25T06:45:37.289Z,8.10
2019-03-25T06:48:06.402Z,8.18
2019-03-25T06:50:35.276Z,8.98
2019-03-25T06:53:04.140Z,7.58
2019-03-25T06:55:33.076Z,9.08
2019-03-25T06:58:01.993Z,8.15
2019-03-25T07:00:30.871Z,7.97
2019-03-25T07:02:59.908Z,8.28
2019-03-25T07:05:28.792Z,8.05
2019-03-25T07:07:57.656Z,8.45
2019-03-25T07:10:28.092Z,9.03
2019-03-25T07:12:56.959Z,9.38
2019-03-25T07:15:27.392Z,8.75
2019-03-25T07:17:56.521Z,9.30
2019-03-25T07:20:25.623Z,9.43
2019-03-25T07:22:54.484Z,9.58
2019-03-25T07:25:23.356Z,9.15
2019-03-25T07:27:52.219Z,9.15
2019-03-25T07:30:21.421Z,10.30
2019-03-25T07:32:51.500Z,10.35
2019-03-25T07:35:22.375Z,9.85
2019-03-25T07:37:50.995Z,11.10
2019-03-25T07:40:20.857Z,10.50
2019-03-25T07:42:49.930Z,10.70
2019-03-25T07:45:18.796Z,11.55
2019-03-25T07:47:47.679Z,12.05
2019-03-25T07:50:16.556Z,9.78
2019-03-25T07:52:45.489Z,10.38
2019-03-25T07:55:14.347Z,10.55
2019-03-25T07:57:48.190Z,9.58
2019-03-25T08:00:14.255Z,20.75
2019-03-25T08:02:43.237Z,7.53
2019-03-25T08:05:12.450Z,8.35
2019-03-25T08:07:41.307Z,8.58
2019-03-25T08:10:10.209Z,11.00
2019-03-25T08:12:39.161Z,16.27
2019-03-25T08:15:08.059Z,14.85
2019-03-25T08:17:36.993Z,12.15
2019-03-25T08:20:07.547Z,8.00
2019-03-25T08:22:36.392Z,12.43
2019-03-25T08:25:06.806Z,9.98
2019-03-25T08:27:35.659Z,7.40
2019-03-25T08:30:06.112Z,7.22
2019-03-25T08:32:36.011Z,9.20
2019-03-25T08:35:06.057Z,11.12
2019-03-25T08:37:34.919Z,9.28
2019-03-25T08:40:05.498Z,8.75
2019-03-25T08:42:34.351Z,8.65
2019-03-25T08:45:03.287Z,8.50
2019-03-25T08:47:32.392Z,9.15
2019-03-25T08:50:01.266Z,5.00
2019-03-25T08:52:30.128Z,7.85
2019-03-25T08:54:59.018Z,7.15
2019-03-25T08:57:27.879Z,8.93
2019-03-25T08:59:57.832Z,8.95
2019-03-25T09:02:28.311Z,7.95
2019-03-25T09:04:57.167Z,9.15
2019-03-25T09:07:26.027Z,10.10
2019-03-25T09:09:55.128Z,5.62
2019-03-25T09:12:23.986Z,4.25
2019-03-25T09:14:52.871Z,9.55
2019-03-25T09:17:21.751Z,7.30
2019-03-25T09:19:50.609Z,4.22
2019-03-25T09:22:19.771Z,4.10
2019-03-25T09:24:48.645Z,4.58
2019-03-25T09:27:17.751Z,4.90
2019-03-25T09:29:46.607Z,6.58
2019-03-25T09:32:15.509Z,7.25
2019-03-25T09:34:44.656Z,6.10
2019-03-25T09:37:13.526Z,5.50
2019-03-25T09:39:42.605Z,5.60
2019-03-25T09:42:11.456Z,5.53
2019-03-25T09:44:40.331Z,4.15
2019-03-25T09:47:09.418Z,4.90
2019-03-25T09:49:38.515Z,5.22
2019-03-25T09:52:07.534Z,3.35
2019-03-25T09:54:36.382Z,5.05
2019-03-25T09:57:05.548Z,4.00
2019-03-25T09:59:34.644Z,3.72
2019-03-25T10:02:03.761Z,4.17
2019-03-25T10:04:32.666Z,4.00
2019-03-25T10:07:02.054Z,4.22
2019-03-25T10:09:30.931Z,4.17
2019-03-25T10:12:01.853Z,3.95
2019-03-25T10:14:30.978Z,3.70
2019-03-25T10:16:59.823Z,3.95
2019-03-25T10:19:28.688Z,3.80
2019-03-25T10:21:57.552Z,3.80
2019-03-25T10:24:28.089Z,3.22
2019-03-25T10:26:57.067Z,3.85
2019-03-25T10:29:26.164Z,3.30
2019-03-25T10:31:55.026Z,4.22
2019-03-25T10:34:23.943Z,4.12
2019-03-25T10:36:52.799Z,3.92
2019-03-25T10:39:21.923Z,4.05
2019-03-25T10:41:50.779Z,4.25
2019-03-25T10:44:19.636Z,4.62
2019-03-25T10:46:48.508Z,4.55
2019-03-25T10:49:17.375Z,4.37
2019-03-25T10:51:47.351Z,3.98
2019-03-25T10:54:16.219Z,4.05
2019-03-25T10:56:49.207Z,3.98
2019-03-25T10:59:15.648Z,4.00
2019-03-25T11:01:44.982Z,4.20
2019-03-25T11:04:14.100Z,3.70
2019-03-25T11:06:43.007Z,3.62
2019-03-25T11:09:12.879Z,4.22
2019-03-25T11:11:41.971Z,4.10
2019-03-25T11:14:11.088Z,4.30
2019-03-25T11:16:40.180Z,3.95
2019-03-25T11:19:10.003Z,4.00
2019-03-25T11:21:39.112Z,3.70
2019-03-25T11:24:07.984Z,4.47
2019-03-25T11:26:37.086Z,4.20
2019-03-25T11:29:08.584Z,4.30
2019-03-25T11:31:36.512Z,3.95
2019-03-25T11:34:05.405Z,4.15
2019-03-25T11:36:34.264Z,3.50
2019-03-25T11:39:04.795Z,3.00
2019-03-25T11:41:33.963Z,3.05
2019-03-25T11:44:02.837Z,2.70
2019-03-25T11:46:31.701Z,2.35
2019-03-25T11:49:00.579Z,2.05
2019-03-25T11:51:29.451Z,2.12
2019-03-25T11:53:58.767Z,1.65
2019-03-25T11:56:27.662Z,2.12
2019-03-25T11:58:56.545Z,1.90
2019-03-25T12:01:25.474Z,1.80
2019-03-25T12:03:54.347Z,1.90
2019-03-25T12:06:23.204Z,1.70
2019-03-25T12:08:52.312Z,2.00
2019-03-25T12:11:21.231Z,1.67
2019-03-25T12:13:50.092Z,2.22
2019-03-25T12:16:18.952Z,2.75
2019-03-25T12:18:48.053Z,2.80
2019-03-25T12:21:16.907Z,3.10
2019-03-25T12:23:45.767Z,2.87
2019-03-25T12:26:14.628Z,3.17
2019-03-25T12:28:43.735Z,2.80
2019-03-25T12:31:12.586Z,3.10
2019-03-25T12:33:42.412Z,2.72
2019-03-25T12:36:11.264Z,2.47
2019-03-25T12:38:40.154Z,2.95
2019-03-25T12:41:09.016Z,2.90
2019-03-25T12:43:37.863Z,2.62
2019-03-25T12:46:06.728Z,2.30
2019-03-25T12:48:37.608Z,1.90
2019-03-25T12:51:06.540Z,2.47
2019-03-25T12:53:36.467Z,1.85
2019-03-25T12:56:05.352Z,1.90
2019-03-25T12:58:34.255Z,1.52
2019-03-25T13:01:03.148Z,1.35
2019-03-25T13:03:31.997Z,1.40
2019-03-25T13:06:00.880Z,1.52
2019-03-25T13:08:33.325Z,1.42
2019-03-25T13:11:00.540Z,1.87
2019-03-25T13:13:31.860Z,1.95
2019-03-25T13:16:01.097Z,2.08
2019-03-25T13:18:30.187Z,2.17
2019-03-25T13:20:59.803Z,1.72
2019-03-25T13:23:28.943Z,1.87
2019-03-25T13:25:57.800Z,2.05
2019-03-25T13:28:26.703Z,1.98
2019-03-25T13:30:58.711Z,2.05
2019-03-25T13:33:29.400Z,1.98
2019-03-25T13:36:01.809Z,2.05
2019-03-25T13:38:38.326Z,1.92
2019-03-25T13:41:24.501Z,1.80
2019-03-25T13:43:57.448Z,1.67
2019-03-25T13:46:33.768Z,1.92
2019-03-25T13:49:03.095Z,2.20
2019-03-25T13:51:32.807Z,2.05
2019-03-25T13:54:07.103Z,2.33
2019-03-25T13:56:44.763Z,2.22
2019-03-25T13:59:22.909Z,2.20
2019-03-25T14:01:54.739Z,2.02
2019-03-25T14:04:23.751Z,2.12
2019-03-25T14:06:53.400Z,1.82
2019-03-25T14:09:22.295Z,2.47
2019-03-25T14:11:53.270Z,2.22
2019-03-25T14:14:22.570Z,2.10
2019-03-25T14:16:55.662Z,2.70
2019-03-25T14:19:29.290Z,2.05
2019-03-25T14:22:00.280Z,2.00
2019-03-25T14:24:29.373Z,2.37
2019-03-25T14:27:02.052Z,2.45
2019-03-25T14:29:30.918Z,1.98
2019-03-25T14:31:59.856Z,1.52
2019-03-25T14:34:28.841Z,1.60
2019-03-25T14:36:57.705Z,1.27
2019-03-25T14:39:27.506Z,2.08
2019-03-25T14:42:03.194Z,1.35
2019-03-25T14:44:32.250Z,1.42
2019-03-25T14:47:01.404Z,1.77
2019-03-25T14:49:30.263Z,1.37
2019-03-25T14:52:00.340Z,1.55
2019-03-25T14:54:29.248Z,1.82
2019-03-25T14:56:58.110Z,1.80
2019-03-25T14:59:27.216Z,2.40
2019-03-25T15:01:56.123Z,2.42
2019-03-25T15:04:25.149Z,2.30
2019-03-25T15:06:54.136Z,2.72
2019-03-25T15:09:23.569Z,2.08
2019-03-25T15:11:52.568Z,2.47
2019-03-25T15:14:21.478Z,2.37
2019-03-25T15:16:50.436Z,3.08
2019-03-25T15:19:19.282Z,3.22
2019-03-25T15:21:48.151Z,2.87
2019-03-25T15:24:17.240Z,2.90
2019-03-25T15:26:46.813Z,2.47
2019-03-25T15:29:15.792Z,2.30
2019-03-25T15:31:44.757Z,2.62
2019-03-25T15:34:14.662Z,2.70
2019-03-25T15:36:44.189Z,2.87
2019-03-25T15:39:13.250Z,3.05
2019-03-25T15:41:43.199Z,2.60
2019-03-25T15:44:12.094Z,2.83
2019-03-25T15:46:40.991Z,2.33
2019-03-25T15:49:09.841Z,2.20
2019-03-25T15:51:38.699Z,2.10
2019-03-25T15:54:07.559Z,2.55
2019-03-25T15:56:36.428Z,2.40
2019-03-25T15:59:05.280Z,1.87
2019-03-25T16:01:34.147Z,2.30
2019-03-25T16:04:03.740Z,2.30
2019-03-25T16:06:32.663Z,2.27
2019-03-25T16:09:05.040Z,2.70
2019-03-25T16:11:33.984Z,2.30
2019-03-25T16:14:02.832Z,2.40
2019-03-25T16:16:31.703Z,2.20
2019-03-25T16:19:01.704Z,2.58
2019-03-25T16:21:30.636Z,2.60
2019-03-25T16:23:59.484Z,2.40
2019-03-25T16:26:28.405Z,2.65
2019-03-25T16:28:57.253Z,2.67
2019-03-25T16:31:26.115Z,2.98
2019-03-25T16:33:55.205Z,2.90
2019-03-25T16:36:24.277Z,2.95
2019-03-25T16:38:53.765Z,2.67
2019-03-25T16:41:22.615Z,3.45
2019-03-25T16:43:58.307Z,3.80
2019-03-25T16:46:28.836Z,3.27
2019-03-25T16:48:57.715Z,3.35
2019-03-25T16:51:26.792Z,3.05
2019-03-25T16:53:57.524Z,3.10
2019-03-25T16:56:26.401Z,2.58
2019-03-25T16:58:56.484Z,3.30
2019-03-25T17:01:25.343Z,2.67
2019-03-25T17:03:55.829Z,3.12
2019-03-25T17:06:25.169Z,2.95
2019-03-25T17:08:55.375Z,2.62
2019-03-25T17:11:24.481Z,2.47
2019-03-25T17:13:53.340Z,3.22
2019-03-25T17:16:22.204Z,3.20
2019-03-25T17:18:51.055Z,3.12
2019-03-25T17:21:20.659Z,3.45
2019-03-25T17:23:49.525Z,3.60
2019-03-25T17:26:18.619Z,3.98
2019-03-25T17:28:47.850Z,4.62
2019-03-25T17:31:21.249Z,4.40
2019-03-25T17:33:50.678Z,4.35
2019-03-25T17:36:20.279Z,4.22
2019-03-25T17:38:50.277Z,4.37
2019-03-25T17:41:19.124Z,3.08
2019-03-25T17:43:48.656Z,2.60
2019-03-25T17:46:17.516Z,2.60
2019-03-25T17:48:46.376Z,3.30
2019-03-25T17:51:15.236Z,3.90
2019-03-25T17:53:44.099Z,4.85
2019-03-25T17:56:12.953Z,3.40
2019-03-25T17:58:41.807Z,4.08
2019-03-25T18:01:12.287Z,4.78
2019-03-25T18:03:41.150Z,2.92
2019-03-25T18:06:11.216Z,3.08
2019-03-25T18:08:40.072Z,2.12
2019-03-25T18:11:08.920Z,1.77
2019-03-25T18:13:37.788Z,2.42
2019-03-25T18:16:06.712Z,2.62
2019-03-25T18:18:35.559Z,3.17
2019-03-25T18:21:04.430Z,2.33
2019-03-25T18:23:33.352Z,2.08
2019-03-25T18:26:02.210Z,2.40
2019-03-25T18:28:31.060Z,2.67
2019-03-25T18:30:59.980Z,2.85
2019-03-25T18:33:28.832Z,2.65
2019-03-25T18:35:57.716Z,2.70
2019-03-25T18:38:26.579Z,3.80
2019-03-25T18:40:55.462Z,4.70
2019-03-25T18:43:25.283Z,2.60
2019-03-25T18:45:54.144Z,2.70
2019-03-25T18:48:23.002Z,2.15
2019-03-25T18:50:52.104Z,2.15
2019-03-25T18:53:20.951Z,3.12
2019-03-25T18:55:49.801Z,4.08
2019-03-25T18:58:18.682Z,3.92
2019-03-25T19:00:47.519Z,3.12
2019-03-25T19:03:18.362Z,2.95
2019-03-25T19:05:46.919Z,2.75
2019-03-25T19:08:15.851Z,3.10
2019-03-25T19:10:44.728Z,3.42
2019-03-25T19:13:13.614Z,7.67
2019-03-25T19:15:43.419Z,7.35
2019-03-25T19:18:12.525Z,3.70
2019-03-25T19:20:42.369Z,3.95
2019-03-25T19:23:12.412Z,17.65
2019-03-25T19:25:41.265Z,6.25
2019-03-25T19:28:14.488Z,6.75
2019-03-25T19:30:44.287Z,6.95
2019-03-25T19:33:13.388Z,7.08
2019-03-25T19:35:42.479Z,6.95
2019-03-25T19:38:12.305Z,7.17
2019-03-25T19:40:41.175Z,9.55
2019-03-25T19:43:10.278Z,8.45
2019-03-25T19:45:39.135Z,8.03
2019-03-25T19:48:07.997Z,8.10
2019-03-25T19:50:36.901Z,11.75
2019-03-25T19:53:05.812Z,8.70
2019-03-25T19:55:34.937Z,9.68
2019-03-25T19:58:05.295Z,8.20
2019-03-25T20:00:36.084Z,10.03
2019-03-25T20:03:05.251Z,10.15
2019-03-25T20:05:35.132Z,9.53
2019-03-25T20:08:05.894Z,9.53
2019-03-25T20:10:35.914Z,9.28
2019-03-25T20:13:04.988Z,9.13
2019-03-25T20:15:45.456Z,9.48
2019-03-25T20:18:06.082Z,12.33
2019-03-25T20:20:34.919Z,13.72
2019-03-25T20:23:03.953Z,10.72
2019-03-25T20:25:32.866Z,10.72
2019-03-25T20:28:01.753Z,9.95
2019-03-25T20:30:31.206Z,9.85
2019-03-25T20:33:00.153Z,9.40
2019-03-25T20:35:29.912Z,9.55
2019-03-25T20:37:58.776Z,10.18
2019-03-25T20:40:28.845Z,9.98
2019-03-25T20:42:57.768Z,10.18
2019-03-25T20:45:26.628Z,10.23
2019-03-25T20:47:55.569Z,9.90
2019-03-25T20:50:24.499Z,9.98
2019-03-25T20:52:54.939Z,10.05
2019-03-25T20:55:23.862Z,9.63
2019-03-25T20:57:53.130Z,9.78
2019-03-25T21:00:23.690Z,9.28
2019-03-25T21:02:52.644Z,9.60
2019-03-25T21:05:21.515Z,10.18
2019-03-25T21:07:50.497Z,9.95
2019-03-25T21:10:19.367Z,10.03
2019-03-25T21:12:51.222Z,9.28
2019-03-25T21:15:22.207Z,9.38
2019-03-25T21:17:51.063Z,9.53
2019-03-25T21:20:19.922Z,9.08
2019-03-25T21:22:48.926Z,9.05
2019-03-25T21:25:19.412Z,9.90
2019-03-25T21:27:49.436Z,10.90
2019-03-25T21:30:19.268Z,11.33
2019-03-25T21:32:58.304Z,10.98
2019-03-25T21:35:19.971Z,12.40
2019-03-25T21:37:48.824Z,12.13
2019-03-25T21:40:17.725Z,12.95
2019-03-25T21:42:47.563Z,13.00
2019-03-25T21:45:17.276Z,12.18
2019-03-25T21:47:47.242Z,11.00
2019-03-25T21:50:16.179Z,11.53
2019-03-25T21:52:46.385Z,10.90
2019-03-25T21:55:15.360Z,10.80
2019-03-25T21:57:44.531Z,11.22
2019-03-25T22:00:13.676Z,11.03
2019-03-25T22:02:42.792Z,10.58
2019-03-25T22:05:11.676Z,10.40
2019-03-25T22:07:40.551Z,10.32
2019-03-25T22:10:09.599Z,9.68
2019-03-25T22:12:38.524Z,9.73
2019-03-25T22:15:11.238Z,10.00
2019-03-25T22:17:40.353Z,10.53
2019-03-25T22:20:27.843Z,10.28
2019-03-25T22:23:00.805Z,9.43
2019-03-25T22:25:29.707Z,10.43
2019-03-25T22:27:58.804Z,10.10
2019-03-25T22:30:27.900Z,9.15
2019-03-25T22:32:57.036Z,9.00
2019-03-25T22:35:29.138Z,8.28
2019-03-25T22:38:03.740Z,9.55
2019-03-25T22:40:34.092Z,8.88
2019-03-25T22:43:04.099Z,8.90
2019-03-25T22:45:33.187Z,8.20
2019-03-25T22:48:03.016Z,8.98
2019-03-25T22:50:31.891Z,8.55
2019-03-25T22:53:00.745Z,8.83
2019-03-25T22:55:29.832Z,7.58
2019-03-25T22:57:58.691Z,7.87
2019-03-25T23:00:29.268Z,7.78
2019-03-25T23:02:59.496Z,8.28
2019-03-25T23:05:28.365Z,7.50
2019-03-25T23:07:57.219Z,7.47
2019-03-25T23:10:26.156Z,7.40
2019-03-25T23:12:55.316Z,6.87
2019-03-25T23:15:24.195Z,8.00
2019-03-25T23:17:53.057Z,6.75
2019-03-25T23:20:21.913Z,6.50
2019-03-25T23:22:51.008Z,7.53
2019-03-25T23:25:19.865Z,6.58
2019-03-25T23:27:48.731Z,7.50
2019-03-25T23:30:17.585Z,7.67
2019-03-25T23:32:46.445Z,7.58
2019-03-25T23:35:15.301Z,8.55
2019-03-25T23:37:44.164Z,7.37
2019-03-25T23:40:13.016Z,8.78
2019-03-25T23:42:41.889Z,8.25
2019-03-25T23:45:10.976Z,8.70
2019-03-25T23:47:39.830Z,8.90
2019-03-25T23:50:08.695Z,9.03
2019-03-25T23:52:37.775Z,8.90
2019-03-25T23:55:06.724Z,9.70
2019-03-25T23:57:35.570Z,9.75
